sensor_id;sensor_type;location;lat;lon;timestamp;temperature;humidity
3356;DHT22;1691;52.486;13.374;2023-05-07T00:01:51;9.50;98.70
3356;DHT22;1691;52.486;13.374;2023-05-07T00:04:21;9.50;98.70
3356;DHT22;1691;52.486;13.374;2023-05-07T00:06:49;9.50;98.70
3356;DHT22;1691;52.486;13.374;2023-05-07T00:09:16;9.40;98.70
3356;DHT22;1691;52.486;13.374;2023-05-07T00:11:44;9.50;98.70
3356;DHT22;1691;52.486;13.374;2023-05-07T00:14:11;9.50;98.70
3356;DHT22;1691;52.486;13.374;2023-05-07T00:16:38;9.50;98.70
3356;DHT22;1691;52.486;13.374;2023-05-07T00:19:05;9.50;98.70
3356;DHT22;1691;52.486;13.374;2023-05-07T00:21:32;9.40;98.70
3356;DHT22;1691;52.486;13.374;2023-05-07T00:23:59;9.40;98.70
3356;DHT22;1691;52.486;13.374;2023-05-07T00:26:26;9.40;98.70
3356;DHT22;1691;52.486;13.374;2023-05-07T00:28:53;9.40;98.70
3356;DHT22;1691;52.486;13.374;2023-05-07T00:31:21;9.40;98.70
3356;DHT22;1691;52.486;13.374;2023-05-07T00:33:48;9.40;98.70
3356;DHT22;1691;52.486;13.374;2023-05-07T00:36:15;9.40;98.70
3356;DHT22;1691;52.486;13.374;2023-05-07T00:38:42;9.40;98.70
3356;DHT22;1691;52.486;13.374;2023-05-07T00:41:09;9.40;98.70
3356;DHT22;1691;52.486;13.374;2023-05-07T00:43:36;9.40;98.70
3356;DHT22;1691;52.486;13.374;2023-05-07T00:46:04;9.40;98.70
3356;DHT22;1691;52.486;13.374;2023-05-07T00:48:32;9.40;98.70
3356;DHT22;1691;52.486;13.374;2023-05-07T00:50:59;9.40;98.70
3356;DHT22;1691;52.486;13.374;2023-05-07T00:53:31;9.40;98.70
3356;DHT22;1691;52.486;13.374;2023-05-07T00:55:58;9.40;98.70
3356;DHT22;1691;52.486;13.374;2023-05-07T00:58:30;9.40;98.70
3356;DHT22;1691;52.486;13.374;2023-05-07T01:00:57;9.50;98.70
3356;DHT22;1691;52.486;13.374;2023-05-07T01:03:25;9.40;98.70
3356;DHT22;1691;52.486;13.374;2023-05-07T01:05:53;9.40;98.70
3356;DHT22;1691;52.486;13.374;2023-05-07T01:08:22;9.40;98.70
3356;DHT22;1691;52.486;13.374;2023-05-07T01:10:53;9.50;98.70
3356;DHT22;1691;52.486;13.374;2023-05-07T01:13:21;9.50;98.70
3356;DHT22;1691;52.486;13.374;2023-05-07T01:15:48;9.50;98.70
3356;DHT22;1691;52.486;13.374;2023-05-07T01:18:15;9.50;98.70
3356;DHT22;1691;52.486;13.374;2023-05-07T01:20:43;9.40;98.70
3356;DHT22;1691;52.486;13.374;2023-05-07T01:23:11;9.40;98.70
3356;DHT22;1691;52.486;13.374;2023-05-07T01:25:38;9.40;98.70
3356;DHT22;1691;52.486;13.374;2023-05-07T01:28:05;9.40;98.70
3356;DHT22;1691;52.486;13.374;2023-05-07T01:30:33;9.40;98.70
3356;DHT22;1691;52.486;13.374;2023-05-07T01:33:06;9.40;98.70
3356;DHT22;1691;52.486;13.374;2023-05-07T01:35:39;9.40;98.70
3356;DHT22;1691;52.486;13.374;2023-05-07T01:38:08;9.40;98.70
3356;DHT22;1691;52.486;13.374;2023-05-07T01:40:36;9.40;98.70
3356;DHT22;1691;52.486;13.374;2023-05-07T01:43:03;9.40;98.70
3356;DHT22;1691;52.486;13.374;2023-05-07T01:45:31;9.30;98.70
3356;DHT22;1691;52.486;13.374;2023-05-07T01:47:59;9.30;98.70
3356;DHT22;1691;52.486;13.374;2023-05-07T01:50:28;9.30;98.70
3356;DHT22;1691;52.486;13.374;2023-05-07T01:52:56;9.30;98.70
3356;DHT22;1691;52.486;13.374;2023-05-07T01:55:24;9.40;98.70
3356;DHT22;1691;52.486;13.374;2023-05-07T01:57:51;9.40;98.70
3356;DHT22;1691;52.486;13.374;2023-05-07T02:00:18;9.40;98.70
3356;DHT22;1691;52.486;13.374;2023-05-07T02:02:46;9.40;98.70
3356;DHT22;1691;52.486;13.374;2023-05-07T02:05:13;9.40;98.70
3356;DHT22;1691;52.486;13.374;2023-05-07T02:07:40;9.40;98.70
3356;DHT22;1691;52.486;13.374;2023-05-07T02:10:07;9.40;98.70
3356;DHT22;1691;52.486;13.374;2023-05-07T02:12:35;9.40;98.70
3356;DHT22;1691;52.486;13.374;2023-05-07T02:15:02;9.40;98.70
3356;DHT22;1691;52.486;13.374;2023-05-07T02:17:30;9.30;98.70
3356;DHT22;1691;52.486;13.374;2023-05-07T02:19:59;9.30;98.70
3356;DHT22;1691;52.486;13.374;2023-05-07T02:22:26;9.30;98.70
3356;DHT22;1691;52.486;13.374;2023-05-07T02:24:53;9.30;98.70
3356;DHT22;1691;52.486;13.374;2023-05-07T02:27:21;9.30;98.70
3356;DHT22;1691;52.486;13.374;2023-05-07T02:29:48;9.30;98.70
3356;DHT22;1691;52.486;13.374;2023-05-07T02:32:15;9.30;98.70
3356;DHT22;1691;52.486;13.374;2023-05-07T02:34:42;9.30;98.70
3356;DHT22;1691;52.486;13.374;2023-05-07T02:37:10;9.40;98.70
3356;DHT22;1691;52.486;13.374;2023-05-07T02:39:37;9.30;98.70
3356;DHT22;1691;52.486;13.374;2023-05-07T02:42:05;9.30;98.70
3356;DHT22;1691;52.486;13.374;2023-05-07T02:44:32;9.30;98.70
3356;DHT22;1691;52.486;13.374;2023-05-07T02:46:59;9.30;98.70
3356;DHT22;1691;52.486;13.374;2023-05-07T02:49:28;9.30;98.70
3356;DHT22;1691;52.486;13.374;2023-05-07T02:51:55;9.30;98.70
3356;DHT22;1691;52.486;13.374;2023-05-07T02:54:22;9.30;98.70
3356;DHT22;1691;52.486;13.374;2023-05-07T02:56:49;9.30;98.70
3356;DHT22;1691;52.486;13.374;2023-05-07T02:59:17;9.30;98.70
3356;DHT22;1691;52.486;13.374;2023-05-07T03:01:44;9.30;98.70
3356;DHT22;1691;52.486;13.374;2023-05-07T03:04:11;9.30;98.70
3356;DHT22;1691;52.486;13.374;2023-05-07T03:06:39;9.30;98.70
3356;DHT22;1691;52.486;13.374;2023-05-07T03:09:05;9.30;98.70
3356;DHT22;1691;52.486;13.374;2023-05-07T03:11:33;9.40;98.70
3356;DHT22;1691;52.486;13.374;2023-05-07T03:14:00;9.40;98.70
3356;DHT22;1691;52.486;13.374;2023-05-07T03:16:27;9.40;98.70
3356;DHT22;1691;52.486;13.374;2023-05-07T03:18:54;9.40;98.70
3356;DHT22;1691;52.486;13.374;2023-05-07T03:21:21;9.40;98.70
3356;DHT22;1691;52.486;13.374;2023-05-07T03:23:49;9.40;98.70
3356;DHT22;1691;52.486;13.374;2023-05-07T03:26:16;9.30;98.70
3356;DHT22;1691;52.486;13.374;2023-05-07T03:28:43;9.30;98.70
3356;DHT22;1691;52.486;13.374;2023-05-07T03:31:10;9.30;98.70
3356;DHT22;1691;52.486;13.374;2023-05-07T03:33:49;9.30;98.70
3356;DHT22;1691;52.486;13.374;2023-05-07T03:36:21;9.30;98.70
3356;DHT22;1691;52.486;13.374;2023-05-07T03:38:48;9.30;98.70
3356;DHT22;1691;52.486;13.374;2023-05-07T03:41:16;9.40;98.70
3356;DHT22;1691;52.486;13.374;2023-05-07T03:43:43;9.40;98.70
3356;DHT22;1691;52.486;13.374;2023-05-07T03:46:10;9.30;98.70
3356;DHT22;1691;52.486;13.374;2023-05-07T03:48:37;9.30;98.70
3356;DHT22;1691;52.486;13.374;2023-05-07T03:51:05;9.30;98.70
3356;DHT22;1691;52.486;13.374;2023-05-07T04:22:31;9.30;98.70
3356;DHT22;1691;52.486;13.374;2023-05-07T04:24:58;9.20;98.70
3356;DHT22;1691;52.486;13.374;2023-05-07T04:27:25;9.30;98.70
3356;DHT22;1691;52.486;13.374;2023-05-07T04:29:53;9.30;98.70
3356;DHT22;1691;52.486;13.374;2023-05-07T04:32:22;9.20;98.70
3356;DHT22;1691;52.486;13.374;2023-05-07T04:34:51;9.30;98.70
3356;DHT22;1691;52.486;13.374;2023-05-07T04:37:18;9.30;98.70
3356;DHT22;1691;52.486;13.374;2023-05-07T04:39:45;9.40;98.70
3356;DHT22;1691;52.486;13.374;2023-05-07T04:42:16;9.40;98.70
3356;DHT22;1691;52.486;13.374;2023-05-07T04:44:44;9.40;98.70
3356;DHT22;1691;52.486;13.374;2023-05-07T04:47:12;9.50;98.70
3356;DHT22;1691;52.486;13.374;2023-05-07T04:49:39;9.50;98.70
3356;DHT22;1691;52.486;13.374;2023-05-07T04:52:07;9.50;98.70
3356;DHT22;1691;52.486;13.374;2023-05-07T04:54:34;9.50;98.70
3356;DHT22;1691;52.486;13.374;2023-05-07T04:57:03;9.50;98.70
3356;DHT22;1691;52.486;13.374;2023-05-07T04:59:32;9.60;98.70
3356;DHT22;1691;52.486;13.374;2023-05-07T05:01:59;9.60;98.70
3356;DHT22;1691;52.486;13.374;2023-05-07T05:04:32;9.60;98.70
3356;DHT22;1691;52.486;13.374;2023-05-07T05:06:59;9.60;98.70
3356;DHT22;1691;52.486;13.374;2023-05-07T05:09:31;9.60;98.70
3356;DHT22;1691;52.486;13.374;2023-05-07T05:11:59;9.70;98.70
3356;DHT22;1691;52.486;13.374;2023-05-07T05:14:26;9.70;98.70
3356;DHT22;1691;52.486;13.374;2023-05-07T05:16:53;9.80;98.70
3356;DHT22;1691;52.486;13.374;2023-05-07T05:19:20;9.90;98.70
3356;DHT22;1691;52.486;13.374;2023-05-07T05:21:47;9.90;98.70
3356;DHT22;1691;52.486;13.374;2023-05-07T05:24:14;10.00;98.70
3356;DHT22;1691;52.486;13.374;2023-05-07T05:26:41;10.10;98.70
3356;DHT22;1691;52.486;13.374;2023-05-07T05:29:08;10.10;98.70
3356;DHT22;1691;52.486;13.374;2023-05-07T05:31:36;10.10;98.70
3356;DHT22;1691;52.486;13.374;2023-05-07T05:34:03;10.00;98.70
3356;DHT22;1691;52.486;13.374;2023-05-07T05:36:30;10.10;98.70
3356;DHT22;1691;52.486;13.374;2023-05-07T05:38:57;10.00;98.70
3356;DHT22;1691;52.486;13.374;2023-05-07T05:41:24;10.00;98.70
3356;DHT22;1691;52.486;13.374;2023-05-07T05:43:51;10.00;98.70
3356;DHT22;1691;52.486;13.374;2023-05-07T05:46:18;10.10;98.70
3356;DHT22;1691;52.486;13.374;2023-05-07T05:48:45;10.10;98.70
3356;DHT22;1691;52.486;13.374;2023-05-07T05:51:12;10.20;98.70
3356;DHT22;1691;52.486;13.374;2023-05-07T05:53:39;10.20;98.70
3356;DHT22;1691;52.486;13.374;2023-05-07T05:56:06;10.30;98.70
3356;DHT22;1691;52.486;13.374;2023-05-07T05:58:33;10.40;98.70
3356;DHT22;1691;52.486;13.374;2023-05-07T06:01:00;10.70;98.70
3356;DHT22;1691;52.486;13.374;2023-05-07T06:03:29;10.90;98.70
3356;DHT22;1691;52.486;13.374;2023-05-07T06:05:56;11.30;98.70
3356;DHT22;1691;52.486;13.374;2023-05-07T06:08:23;11.60;98.70
3356;DHT22;1691;52.486;13.374;2023-05-07T06:10:50;11.80;98.60
3356;DHT22;1691;52.486;13.374;2023-05-07T06:13:17;12.30;98.70
3356;DHT22;1691;52.486;13.374;2023-05-07T06:15:44;12.90;97.70
3356;DHT22;1691;52.486;13.374;2023-05-07T06:18:12;13.00;96.10
3356;DHT22;1691;52.486;13.374;2023-05-07T06:20:39;12.90;95.70
3356;DHT22;1691;52.486;13.374;2023-05-07T06:23:06;12.80;95.60
3356;DHT22;1691;52.486;13.374;2023-05-07T06:25:33;12.70;95.40
3356;DHT22;1691;52.486;13.374;2023-05-07T06:28:00;12.70;95.40
3356;DHT22;1691;52.486;13.374;2023-05-07T06:30:27;12.80;95.30
3356;DHT22;1691;52.486;13.374;2023-05-07T06:32:54;12.90;95.30
3356;DHT22;1691;52.486;13.374;2023-05-07T06:35:21;13.10;95.00
3356;DHT22;1691;52.486;13.374;2023-05-07T06:37:48;13.20;94.20
3356;DHT22;1691;52.486;13.374;2023-05-07T06:40:15;13.10;93.80
3356;DHT22;1691;52.486;13.374;2023-05-07T06:42:42;13.10;93.70
3356;DHT22;1691;52.486;13.374;2023-05-07T06:45:09;13.00;93.50
3356;DHT22;1691;52.486;13.374;2023-05-07T06:47:36;12.90;93.50
3356;DHT22;1691;52.486;13.374;2023-05-07T06:50:04;12.80;93.40
3356;DHT22;1691;52.486;13.374;2023-05-07T06:52:31;12.80;93.20
3356;DHT22;1691;52.486;13.374;2023-05-07T06:55:00;12.70;93.40
3356;DHT22;1691;52.486;13.374;2023-05-07T06:57:29;12.80;92.90
3356;DHT22;1691;52.486;13.374;2023-05-07T06:59:56;12.90;92.80
3356;DHT22;1691;52.486;13.374;2023-05-07T07:02:23;13.20;93.00
3356;DHT22;1691;52.486;13.374;2023-05-07T07:04:50;13.70;92.30
3356;DHT22;1691;52.486;13.374;2023-05-07T07:07:17;14.00;91.70
3356;DHT22;1691;52.486;13.374;2023-05-07T07:09:44;14.10;91.10
3356;DHT22;1691;52.486;13.374;2023-05-07T07:12:11;14.00;90.40
3356;DHT22;1691;52.486;13.374;2023-05-07T07:14:38;13.90;90.50
3356;DHT22;1691;52.486;13.374;2023-05-07T07:17:05;14.00;90.80
3356;DHT22;1691;52.486;13.374;2023-05-07T07:19:32;14.50;90.80
3356;DHT22;1691;52.486;13.374;2023-05-07T07:21:59;14.80;88.80
3356;DHT22;1691;52.486;13.374;2023-05-07T07:24:26;14.90;87.50
3356;DHT22;1691;52.486;13.374;2023-05-07T07:26:52;15.20;87.70
3356;DHT22;1691;52.486;13.374;2023-05-07T07:29:21;16.10;88.20
3356;DHT22;1691;52.486;13.374;2023-05-07T07:31:48;17.60;86.20
3356;DHT22;1691;52.486;13.374;2023-05-07T07:34:18;19.10;80.60
3356;DHT22;1691;52.486;13.374;2023-05-07T07:36:45;19.20;74.80
3356;DHT22;1691;52.486;13.374;2023-05-07T07:39:12;19.00;74.20
3356;DHT22;1691;52.486;13.374;2023-05-07T07:41:39;18.60;73.90
3356;DHT22;1691;52.486;13.374;2023-05-07T07:44:06;18.90;74.60
3356;DHT22;1691;52.486;13.374;2023-05-07T07:46:34;19.70;72.80
3356;DHT22;1691;52.486;13.374;2023-05-07T07:49:01;20.50;69.00
3356;DHT22;1691;52.486;13.374;2023-05-07T07:51:30;21.20;67.20
3356;DHT22;1691;52.486;13.374;2023-05-07T07:53:57;21.80;64.90
3356;DHT22;1691;52.486;13.374;2023-05-07T07:56:24;22.40;63.10
3356;DHT22;1691;52.486;13.374;2023-05-07T07:58:51;22.90;60.60
3356;DHT22;1691;52.486;13.374;2023-05-07T08:01:18;23.40;59.60
3356;DHT22;1691;52.486;13.374;2023-05-07T08:03:45;24.10;58.90
3356;DHT22;1691;52.486;13.374;2023-05-07T08:06:12;24.90;57.50
3356;DHT22;1691;52.486;13.374;2023-05-07T08:08:40;25.40;55.50
3356;DHT22;1691;52.486;13.374;2023-05-07T08:11:07;25.90;54.20
3356;DHT22;1691;52.486;13.374;2023-05-07T08:13:35;26.20;52.10
3356;DHT22;1691;52.486;13.374;2023-05-07T08:16:02;25.60;51.80
3356;DHT22;1691;52.486;13.374;2023-05-07T08:18:29;25.00;53.20
3356;DHT22;1691;52.486;13.374;2023-05-07T08:20:56;24.80;52.10
3356;DHT22;1691;52.486;13.374;2023-05-07T08:23:24;24.70;52.90
3356;DHT22;1691;52.486;13.374;2023-05-07T08:25:51;25.20;52.50
3356;DHT22;1691;52.486;13.374;2023-05-07T08:28:18;25.80;49.80
3356;DHT22;1691;52.486;13.374;2023-05-07T08:30:46;26.10;49.00
3356;DHT22;1691;52.486;13.374;2023-05-07T08:33:14;26.50;48.40
3356;DHT22;1691;52.486;13.374;2023-05-07T08:35:41;26.70;47.90
3356;DHT22;1691;52.486;13.374;2023-05-07T08:38:08;26.90;46.40
3356;DHT22;1691;52.486;13.374;2023-05-07T08:40:37;26.50;47.20
3356;DHT22;1691;52.486;13.374;2023-05-07T08:43:06;25.50;47.80
3356;DHT22;1691;52.486;13.374;2023-05-07T08:45:34;24.90;48.10
3356;DHT22;1691;52.486;13.374;2023-05-07T08:48:03;24.90;47.20
3356;DHT22;1691;52.486;13.374;2023-05-07T08:50:38;24.80;46.20
3356;DHT22;1691;52.486;13.374;2023-05-07T08:53:05;24.20;46.70
3356;DHT22;1691;52.486;13.374;2023-05-07T08:55:32;23.40;49.00
3356;DHT22;1691;52.486;13.374;2023-05-07T08:58:00;22.70;48.50
3356;DHT22;1691;52.486;13.374;2023-05-07T09:00:28;22.30;50.70
3356;DHT22;1691;52.486;13.374;2023-05-07T09:02:55;22.70;51.30
3356;DHT22;1691;52.486;13.374;2023-05-07T09:05:22;23.30;50.20
3356;DHT22;1691;52.486;13.374;2023-05-07T09:07:49;23.30;50.20
3356;DHT22;1691;52.486;13.374;2023-05-07T09:10:21;23.50;50.50
3356;DHT22;1691;52.486;13.374;2023-05-07T09:12:48;23.50;49.60
3356;DHT22;1691;52.486;13.374;2023-05-07T09:15:15;23.40;49.90
3356;DHT22;1691;52.486;13.374;2023-05-07T09:17:43;23.50;49.20
3356;DHT22;1691;52.486;13.374;2023-05-07T09:20:10;23.40;49.60
3356;DHT22;1691;52.486;13.374;2023-05-07T09:22:38;23.40;49.90
3356;DHT22;1691;52.486;13.374;2023-05-07T09:25:06;23.40;49.60
3356;DHT22;1691;52.486;13.374;2023-05-07T09:27:35;23.10;49.00
3356;DHT22;1691;52.486;13.374;2023-05-07T09:30:06;22.50;49.60
3356;DHT22;1691;52.486;13.374;2023-05-07T09:32:37;22.60;49.80
3356;DHT22;1691;52.486;13.374;2023-05-07T09:35:05;22.20;49.90
3356;DHT22;1691;52.486;13.374;2023-05-07T09:37:33;21.60;51.20
3356;DHT22;1691;52.486;13.374;2023-05-07T09:40:00;21.40;52.10
3356;DHT22;1691;52.486;13.374;2023-05-07T09:42:29;21.20;52.90
3356;DHT22;1691;52.486;13.374;2023-05-07T09:44:56;21.20;52.10
3356;DHT22;1691;52.486;13.374;2023-05-07T09:47:31;20.90;53.30
3356;DHT22;1691;52.486;13.374;2023-05-07T09:49:59;20.70;53.50
3356;DHT22;1691;52.486;13.374;2023-05-07T09:52:30;21.10;54.10
3356;DHT22;1691;52.486;13.374;2023-05-07T09:55:00;21.20;53.00
3356;DHT22;1691;52.486;13.374;2023-05-07T09:57:30;20.70;53.30
3356;DHT22;1691;52.486;13.374;2023-05-07T09:59:59;20.20;54.70
3356;DHT22;1691;52.486;13.374;2023-05-07T10:02:31;19.70;54.90
3356;DHT22;1691;52.486;13.374;2023-05-07T10:05:00;19.20;55.90
3356;DHT22;1691;52.486;13.374;2023-05-07T10:07:28;18.80;56.50
3356;DHT22;1691;52.486;13.374;2023-05-07T10:09:57;18.60;57.50
3356;DHT22;1691;52.486;13.374;2023-05-07T10:12:30;18.70;58.10
3356;DHT22;1691;52.486;13.374;2023-05-07T10:15:07;19.50;57.80
3356;DHT22;1691;52.486;13.374;2023-05-07T10:17:38;20.50;56.40
3356;DHT22;1691;52.486;13.374;2023-05-07T10:20:06;21.50;55.20
3356;DHT22;1691;52.486;13.374;2023-05-07T10:22:48;22.30;54.20
3356;DHT22;1691;52.486;13.374;2023-05-07T10:25:21;22.10;52.70
3356;DHT22;1691;52.486;13.374;2023-05-07T10:27:53;21.40;52.90
3356;DHT22;1691;52.486;13.374;2023-05-07T10:33:02;21.30;53.80
3356;DHT22;1691;52.486;13.374;2023-05-07T10:35:39;21.10;53.50
3356;DHT22;1691;52.486;13.374;2023-05-07T10:38:08;20.50;53.50
3356;DHT22;1691;52.486;13.374;2023-05-07T10:40:35;20.20;55.20
3356;DHT22;1691;52.486;13.374;2023-05-07T10:43:04;20.10;55.20
3356;DHT22;1691;52.486;13.374;2023-05-07T10:45:35;19.90;55.20
3356;DHT22;1691;52.486;13.374;2023-05-07T10:48:13;19.50;55.80
3356;DHT22;1691;52.486;13.374;2023-05-07T10:50:44;19.30;55.60
3356;DHT22;1691;52.486;13.374;2023-05-07T10:55:49;19.10;56.70
3356;DHT22;1691;52.486;13.374;2023-05-07T10:58:27;18.90;56.70
3356;DHT22;1691;52.486;13.374;2023-05-07T11:00:59;18.70;56.70
3356;DHT22;1691;52.486;13.374;2023-05-07T11:03:27;18.50;57.60
3356;DHT22;1691;52.486;13.374;2023-05-07T11:06:14;18.40;57.30
3356;DHT22;1691;52.486;13.374;2023-05-07T11:08:56;18.20;57.90
3356;DHT22;1691;52.486;13.374;2023-05-07T11:11:49;18.30;58.40
3356;DHT22;1691;52.486;13.374;2023-05-07T11:17:08;18.00;59.00
3356;DHT22;1691;52.486;13.374;2023-05-07T11:20:08;17.90;59.30
3356;DHT22;1691;52.486;13.374;2023-05-07T11:22:37;17.80;58.40
3356;DHT22;1691;52.486;13.374;2023-05-07T11:25:06;17.60;59.30
3356;DHT22;1691;52.486;13.374;2023-05-07T11:27:34;17.30;59.30
3356;DHT22;1691;52.486;13.374;2023-05-07T11:30:01;17.10;59.90
3356;DHT22;1691;52.486;13.374;2023-05-07T11:32:31;17.00;61.00
3356;DHT22;1691;52.486;13.374;2023-05-07T11:35:00;17.00;61.40
3356;DHT22;1691;52.486;13.374;2023-05-07T11:37:30;17.10;61.00
3356;DHT22;1691;52.486;13.374;2023-05-07T11:40:07;17.10;60.50
3356;DHT22;1691;52.486;13.374;2023-05-07T11:42:38;17.20;60.10
3356;DHT22;1691;52.486;13.374;2023-05-07T11:45:08;17.40;61.00
3356;DHT22;1691;52.486;13.374;2023-05-07T11:47:36;17.60;60.60
3356;DHT22;1691;52.486;13.374;2023-05-07T11:50:07;17.70;59.90
3356;DHT22;1691;52.486;13.374;2023-05-07T11:52:37;17.80;60.10
3356;DHT22;1691;52.486;13.374;2023-05-07T11:55:07;17.90;59.90
3356;DHT22;1691;52.486;13.374;2023-05-07T11:57:35;17.80;59.80
3356;DHT22;1691;52.486;13.374;2023-05-07T12:00:03;17.70;59.30
3356;DHT22;1691;52.486;13.374;2023-05-07T12:02:31;17.50;59.90
3356;DHT22;1691;52.486;13.374;2023-05-07T12:05:00;17.40;60.30
3356;DHT22;1691;52.486;13.374;2023-05-07T12:07:34;17.30;60.60
3356;DHT22;1691;52.486;13.374;2023-05-07T12:10:05;17.30;60.80
3356;DHT22;1691;52.486;13.374;2023-05-07T12:12:46;17.20;60.50
3356;DHT22;1691;52.486;13.374;2023-05-07T12:15:16;17.30;60.60
3356;DHT22;1691;52.486;13.374;2023-05-07T12:17:44;17.30;60.80
3356;DHT22;1691;52.486;13.374;2023-05-07T12:20:11;17.30;60.60
3356;DHT22;1691;52.486;13.374;2023-05-07T12:22:39;17.20;60.50
3356;DHT22;1691;52.486;13.374;2023-05-07T12:25:06;17.00;60.50
3356;DHT22;1691;52.486;13.374;2023-05-07T12:27:37;17.00;61.00
3356;DHT22;1691;52.486;13.374;2023-05-07T12:30:05;16.90;61.00
3356;DHT22;1691;52.486;13.374;2023-05-07T12:32:32;16.80;60.80
3356;DHT22;1691;52.486;13.374;2023-05-07T12:35:05;16.70;61.40
3356;DHT22;1691;52.486;13.374;2023-05-07T12:37:33;16.70;61.40
3356;DHT22;1691;52.486;13.374;2023-05-07T12:40:06;16.70;61.60
3356;DHT22;1691;52.486;13.374;2023-05-07T12:42:40;16.70;60.80
3356;DHT22;1691;52.486;13.374;2023-05-07T12:45:10;16.70;61.20
3356;DHT22;1691;52.486;13.374;2023-05-07T12:47:46;16.70;61.40
3356;DHT22;1691;52.486;13.374;2023-05-07T12:50:15;16.70;61.40
3356;DHT22;1691;52.486;13.374;2023-05-07T12:52:52;16.60;61.40
3356;DHT22;1691;52.486;13.374;2023-05-07T12:55:19;16.70;61.80
3356;DHT22;1691;52.486;13.374;2023-05-07T12:57:48;16.70;61.60
3356;DHT22;1691;52.486;13.374;2023-05-07T13:00:18;16.80;62.10
3356;DHT22;1691;52.486;13.374;2023-05-07T13:03:05;16.80;61.40
3356;DHT22;1691;52.486;13.374;2023-05-07T13:05:32;16.90;62.00
3356;DHT22;1691;52.486;13.374;2023-05-07T13:07:59;16.90;62.10
3356;DHT22;1691;52.486;13.374;2023-05-07T13:10:26;16.90;62.30
3356;DHT22;1691;52.486;13.374;2023-05-07T13:12:54;16.90;62.50
3356;DHT22;1691;52.486;13.374;2023-05-07T13:15:21;16.90;61.80
3356;DHT22;1691;52.486;13.374;2023-05-07T13:17:48;16.80;61.40
3356;DHT22;1691;52.486;13.374;2023-05-07T13:20:15;16.80;61.40
3356;DHT22;1691;52.486;13.374;2023-05-07T13:22:42;16.70;60.80
3356;DHT22;1691;52.486;13.374;2023-05-07T13:25:09;16.70;60.80
3356;DHT22;1691;52.486;13.374;2023-05-07T13:27:37;16.80;61.40
3356;DHT22;1691;52.486;13.374;2023-05-07T13:30:04;16.80;61.00
3356;DHT22;1691;52.486;13.374;2023-05-07T13:32:32;16.80;60.80
3356;DHT22;1691;52.486;13.374;2023-05-07T13:34:59;16.80;60.80
3356;DHT22;1691;52.486;13.374;2023-05-07T13:37:29;16.70;60.60
3356;DHT22;1691;52.486;13.374;2023-05-07T13:39:56;16.70;61.20
3356;DHT22;1691;52.486;13.374;2023-05-07T13:42:23;16.80;61.20
3356;DHT22;1691;52.486;13.374;2023-05-07T13:44:50;16.80;61.40
3356;DHT22;1691;52.486;13.374;2023-05-07T13:47:17;16.80;61.20
3356;DHT22;1691;52.486;13.374;2023-05-07T13:49:44;16.80;61.40
3356;DHT22;1691;52.486;13.374;2023-05-07T13:52:11;16.80;61.20
3356;DHT22;1691;52.486;13.374;2023-05-07T13:54:38;16.80;61.60
3356;DHT22;1691;52.486;13.374;2023-05-07T13:57:05;16.80;61.20
3356;DHT22;1691;52.486;13.374;2023-05-07T13:59:32;16.70;60.60
3356;DHT22;1691;52.486;13.374;2023-05-07T14:01:59;16.70;60.50
3356;DHT22;1691;52.486;13.374;2023-05-07T14:04:26;16.60;60.50
3356;DHT22;1691;52.486;13.374;2023-05-07T14:06:53;16.50;60.60
3356;DHT22;1691;52.486;13.374;2023-05-07T14:09:20;16.40;60.60
3356;DHT22;1691;52.486;13.374;2023-05-07T14:11:47;16.40;60.50
3356;DHT22;1691;52.486;13.374;2023-05-07T14:14:18;16.50;60.50
3356;DHT22;1691;52.486;13.374;2023-05-07T14:16:45;16.60;60.30
3356;DHT22;1691;52.486;13.374;2023-05-07T14:19:15;16.60;60.10
3356;DHT22;1691;52.486;13.374;2023-05-07T14:21:42;16.80;60.30
3356;DHT22;1691;52.486;13.374;2023-05-07T14:24:09;16.80;60.10
3356;DHT22;1691;52.486;13.374;2023-05-07T14:26:36;16.90;60.10
3356;DHT22;1691;52.486;13.374;2023-05-07T14:29:03;16.90;59.50
3356;DHT22;1691;52.486;13.374;2023-05-07T14:31:30;16.90;59.50
3356;DHT22;1691;52.486;13.374;2023-05-07T14:33:58;17.00;59.30
3356;DHT22;1691;52.486;13.374;2023-05-07T14:36:25;17.10;59.20
3356;DHT22;1691;52.486;13.374;2023-05-07T14:38:56;17.10;58.70
3356;DHT22;1691;52.486;13.374;2023-05-07T14:41:25;17.10;59.00
3356;DHT22;1691;52.486;13.374;2023-05-07T14:43:52;17.10;58.40
3356;DHT22;1691;52.486;13.374;2023-05-07T14:46:19;17.20;58.20
3356;DHT22;1691;52.486;13.374;2023-05-07T14:48:46;17.20;58.10
3356;DHT22;1691;52.486;13.374;2023-05-07T14:51:13;17.30;58.20
3356;DHT22;1691;52.486;13.374;2023-05-07T14:53:41;17.40;58.50
3356;DHT22;1691;52.486;13.374;2023-05-07T14:56:09;17.40;57.90
3356;DHT22;1691;52.486;13.374;2023-05-07T14:58:36;17.50;57.60
3356;DHT22;1691;52.486;13.374;2023-05-07T15:01:03;17.60;57.30
3356;DHT22;1691;52.486;13.374;2023-05-07T15:03:30;17.70;57.60
3356;DHT22;1691;52.486;13.374;2023-05-07T15:05:57;17.80;57.60
3356;DHT22;1691;52.486;13.374;2023-05-07T15:08:24;17.90;57.80
3356;DHT22;1691;52.486;13.374;2023-05-07T15:10:51;17.80;57.60
3356;DHT22;1691;52.486;13.374;2023-05-07T15:13:18;17.70;57.80
3356;DHT22;1691;52.486;13.374;2023-05-07T15:15:45;17.60;58.10
3356;DHT22;1691;52.486;13.374;2023-05-07T15:18:13;17.60;58.50
3356;DHT22;1691;52.486;13.374;2023-05-07T15:20:41;17.70;58.40
3356;DHT22;1691;52.486;13.374;2023-05-07T15:23:08;17.70;58.20
3356;DHT22;1691;52.486;13.374;2023-05-07T15:25:40;17.60;58.20
3356;DHT22;1691;52.486;13.374;2023-05-07T15:28:07;17.60;58.90
3356;DHT22;1691;52.486;13.374;2023-05-07T15:30:35;17.60;58.90
3356;DHT22;1691;52.486;13.374;2023-05-07T15:33:02;17.50;59.80
3356;DHT22;1691;52.486;13.374;2023-05-07T15:35:30;17.50;59.80
3356;DHT22;1691;52.486;13.374;2023-05-07T15:37:57;17.50;59.50
3356;DHT22;1691;52.486;13.374;2023-05-07T15:40:24;17.40;59.50
3356;DHT22;1691;52.486;13.374;2023-05-07T15:42:54;17.40;59.50
3356;DHT22;1691;52.486;13.374;2023-05-07T15:45:23;17.30;59.80
3356;DHT22;1691;52.486;13.374;2023-05-07T15:47:50;17.30;59.50
3356;DHT22;1691;52.486;13.374;2023-05-07T15:50:17;17.20;59.80
3356;DHT22;1691;52.486;13.374;2023-05-07T15:52:44;17.20;60.60
3356;DHT22;1691;52.486;13.374;2023-05-07T15:55:12;17.20;61.00
3356;DHT22;1691;52.486;13.374;2023-05-07T15:57:40;17.30;60.50
3356;DHT22;1691;52.486;13.374;2023-05-07T16:00:07;17.20;60.60
3356;DHT22;1691;52.486;13.374;2023-05-07T16:02:36;17.30;60.10
3356;DHT22;1691;52.486;13.374;2023-05-07T16:05:05;17.20;59.30
3356;DHT22;1691;52.486;13.374;2023-05-07T16:07:34;17.10;59.20
3356;DHT22;1691;52.486;13.374;2023-05-07T16:10:03;17.00;59.90
3356;DHT22;1691;52.486;13.374;2023-05-07T16:12:31;16.80;60.50
3356;DHT22;1691;52.486;13.374;2023-05-07T16:14:58;16.70;61.60
3356;DHT22;1691;52.486;13.374;2023-05-07T16:17:25;16.50;61.40
3356;DHT22;1691;52.486;13.374;2023-05-07T16:19:52;16.40;61.80
3356;DHT22;1691;52.486;13.374;2023-05-07T16:22:19;16.20;61.80
3356;DHT22;1691;52.486;13.374;2023-05-07T16:24:46;16.10;62.00
3356;DHT22;1691;52.486;13.374;2023-05-07T16:27:13;16.00;61.80
3356;DHT22;1691;52.486;13.374;2023-05-07T16:29:40;16.00;62.00
3356;DHT22;1691;52.486;13.374;2023-05-07T16:32:07;15.90;62.00
3356;DHT22;1691;52.486;13.374;2023-05-07T16:34:34;15.90;62.00